createdAt,value
2017-09-05T00:02:03.376Z,56.7
2017-09-05T00:07:03.644Z,56.6
2017-09-05T00:12:03.502Z,56.6
2017-09-05T00:17:03.441Z,56.6
2017-09-05T00:22:03.299Z,56.6
2017-09-05T00:27:03.901Z,56.6
2017-09-05T00:32:03.588Z,56.6
2017-09-05T00:37:03.566Z,56.7
2017-09-05T00:42:03.231Z,56.7
2017-09-05T00:47:03.938Z,56.7
2017-09-05T00:52:03.572Z,56.7
2017-09-05T00:57:03.305Z,56.7
2017-09-05T01:02:03.986Z,56.6
2017-09-05T01:07:03.169Z,57.0
2017-09-05T01:12:03.870Z,56.7
2017-09-05T01:17:03.707Z,56.6
2017-09-05T01:22:03.056Z,56.6
2017-09-05T01:27:03.803Z,56.6
2017-09-05T01:32:03.430Z,56.6
2017-09-05T01:37:03.513Z,56.5
2017-09-05T01:42:03.286Z,56.5
2017-09-05T01:47:04.058Z,56.5
2017-09-05T01:52:03.809Z,56.5
2017-09-05T01:57:03.499Z,56.5
2017-09-05T02:02:03.343Z,56.6
2017-09-05T02:07:03.225Z,56.5
2017-09-05T02:12:03.940Z,56.5
2017-09-05T02:17:03.759Z,56.6
2017-09-05T02:22:03.715Z,56.5
2017-09-05T02:27:03.331Z,56.7
2017-09-05T02:32:03.978Z,56.7
2017-09-05T02:37:03.586Z,56.7
2017-09-05T02:42:03.875Z,56.7
2017-09-05T02:47:03.339Z,56.8
2017-09-05T02:52:03.593Z,56.8
2017-09-05T02:57:03.871Z,56.8
2017-09-05T03:02:03.252Z,57.0
2017-09-05T03:07:03.631Z,57.0
2017-09-05T03:12:03.219Z,57.0
2017-09-05T03:17:03.554Z,56.9
2017-09-05T03:22:03.862Z,56.9
2017-09-05T03:27:03.240Z,56.8
2017-09-05T03:32:03.534Z,56.9
2017-09-05T03:37:03.865Z,56.8
2017-09-05T03:42:03.157Z,57.0
2017-09-05T03:47:03.540Z,57.0
2017-09-05T03:52:03.827Z,57.0
2017-09-05T03:57:03.195Z,57.0
2017-09-05T04:02:03.522Z,56.7
2017-09-05T04:07:03.909Z,56.7
2017-09-05T04:12:03.467Z,56.9
2017-09-05T04:17:05.473Z,57.0
2017-09-05T04:22:03.259Z,57.0
2017-09-05T04:27:03.770Z,57.1
2017-09-05T04:32:24.419Z,57.1
2017-09-05T04:37:03.657Z,57.4
2017-09-05T04:42:03.186Z,57.2
2017-09-05T04:47:28.288Z,57.1
2017-09-05T04:52:03.223Z,56.9
2017-09-05T04:57:03.761Z,57.0
2017-09-05T05:02:35.176Z,56.9
2017-09-05T05:07:03.884Z,56.9
2017-09-05T05:12:03.438Z,56.9
2017-09-05T05:17:24.982Z,56.9
2017-09-05T05:22:03.657Z,56.8
2017-09-05T05:27:03.144Z,56.9
2017-09-05T05:32:28.760Z,56.9
2017-09-05T05:37:03.534Z,56.9
2017-09-05T05:42:03.481Z,56.7
2017-09-05T05:47:25.454Z,56.6
2017-09-05T05:52:03.601Z,56.6
2017-09-05T05:57:03.954Z,56.6
2017-09-05T06:02:27.862Z,56.8
2017-09-05T06:07:03.334Z,56.4
2017-09-05T06:12:03.831Z,56.4
2017-09-05T06:17:28.573Z,56.4
2017-09-05T06:22:03.230Z,56.3
2017-09-05T06:27:03.747Z,56.2
2017-09-05T06:32:27.614Z,56.1
2017-09-05T06:37:03.121Z,55.8
2017-09-05T06:42:03.601Z,55.8
2017-09-05T06:47:24.787Z,55.8
2017-09-05T06:52:03.566Z,55.7
2017-09-05T06:57:03.494Z,55.7
2017-09-05T07:02:28.074Z,56.0
2017-09-05T07:07:03.452Z,56.0
2017-09-05T07:12:03.347Z,55.9
2017-09-05T07:17:22.812Z,55.6
2017-09-05T07:22:03.731Z,55.5
2017-09-05T07:27:03.169Z,55.9
2017-09-05T07:32:35.416Z,55.7
2017-09-05T07:37:03.785Z,55.6
2017-09-05T07:42:03.189Z,55.9
2017-09-05T07:47:25.080Z,55.7
2017-09-05T07:52:03.816Z,55.7
2017-09-05T07:57:03.238Z,55.7
2017-09-05T08:02:23.866Z,56.3
2017-09-05T08:07:03.578Z,55.9
2017-09-05T08:12:03.337Z,56.3
2017-09-05T08:17:25.754Z,56.4
2017-09-05T08:22:03.438Z,56.3
2017-09-05T08:27:03.795Z,56.5
2017-09-05T08:32:28.151Z,56.4
2017-09-05T08:37:03.212Z,56.3
2017-09-05T08:42:03.736Z,56.3
2017-09-05T08:47:23.882Z,56.3
2017-09-05T08:52:03.497Z,56.4
2017-09-05T08:57:03.947Z,56.8
2017-09-05T09:02:27.129Z,57.0
2017-09-05T09:07:03.512Z,56.9
2017-09-05T09:12:03.203Z,56.8
2017-09-05T09:17:24.083Z,57.3
2017-09-05T09:22:03.499Z,57.3
2017-09-05T09:27:04.009Z,57.6
2017-09-05T09:32:30.177Z,57.6
2017-09-05T09:37:03.777Z,57.7
2017-09-05T09:42:03.830Z,57.7
2017-09-05T09:47:27.521Z,58.2
2017-09-05T09:52:03.671Z,58.1
2017-09-05T09:57:03.374Z,58.3
2017-09-05T10:02:24.821Z,58.0
2017-09-05T10:07:03.858Z,58.3
2017-09-05T10:12:03.986Z,58.3
2017-09-05T10:17:24.181Z,57.4
2017-09-05T10:22:03.240Z,57.3
2017-09-05T10:27:03.811Z,57.7
2017-09-05T10:32:27.271Z,57.7
2017-09-05T10:37:03.353Z,58.2
2017-09-05T10:42:03.756Z,58.5
2017-09-05T10:47:25.427Z,59.1
2017-09-05T10:52:03.009Z,58.4
2017-09-05T10:57:03.512Z,58.1
2017-09-05T11:02:23.067Z,58.1
2017-09-05T11:07:03.195Z,58.1
2017-09-05T11:12:03.729Z,58.1
2017-09-05T11:17:28.398Z,58.1
2017-09-05T11:22:03.266Z,59.0
2017-09-05T11:27:03.734Z,58.5
2017-09-05T11:32:24.206Z,59.0
2017-09-05T11:37:03.430Z,58.9
2017-09-05T11:42:03.765Z,58.6
2017-09-05T11:47:23.416Z,58.4
2017-09-05T11:52:03.040Z,58.4
2017-09-05T11:57:03.638Z,57.6
2017-09-05T12:02:23.338Z,57.5
2017-09-05T12:07:03.117Z,56.9
2017-09-05T12:12:03.759Z,57.0
2017-09-05T12:17:24.191Z,57.6
2017-09-05T12:22:03.763Z,57.9
2017-09-05T12:27:03.723Z,57.7
2017-09-05T12:32:27.895Z,57.0
2017-09-05T12:37:03.891Z,56.3
2017-09-05T12:42:03.522Z,56.3
2017-09-05T12:47:28.051Z,57.0
2017-09-05T12:52:03.684Z,57.0
2017-09-05T12:57:03.226Z,57.3
2017-09-05T13:02:24.272Z,56.9
2017-09-05T13:07:03.192Z,56.9
2017-09-05T13:12:03.766Z,57.3
2017-09-05T13:17:24.570Z,57.3
2017-09-05T13:22:03.478Z,57.0
2017-09-05T13:27:03.876Z,57.7
2017-09-05T13:32:27.797Z,55.8
2017-09-05T13:37:03.009Z,57.4
2017-09-05T13:42:03.515Z,57.4
2017-09-05T13:47:34.381Z,57.7
2017-09-05T13:52:02.968Z,57.7
2017-09-05T13:57:03.140Z,57.2
2017-09-05T14:02:27.648Z,57.4
2017-09-05T14:07:03.287Z,57.4
2017-09-05T14:12:03.908Z,56.6
2017-09-05T14:17:24.176Z,55.4
2017-09-05T14:22:03.251Z,56.0
2017-09-05T14:27:03.818Z,56.0
2017-09-05T14:32:23.570Z,56.1
2017-09-05T14:37:03.593Z,52.9
2017-09-05T14:42:03.082Z,53.2
2017-09-05T14:47:25.014Z,53.8
2017-09-05T14:52:03.707Z,51.8
2017-09-05T14:57:03.210Z,51.8
2017-09-05T15:02:23.807Z,54.9
2017-09-05T15:07:03.164Z,54.8
2017-09-05T15:12:03.764Z,53.7
2017-09-05T15:17:28.806Z,53.7
2017-09-05T15:22:03.297Z,55.2
2017-09-05T15:27:03.882Z,55.2
2017-09-05T15:32:23.907Z,55.4
2017-09-05T15:37:03.329Z,51.0
2017-09-05T15:42:03.732Z,51.0
2017-09-05T15:47:26.628Z,51.5
2017-09-05T15:52:03.353Z,53.9
2017-09-05T15:57:03.706Z,54.4
2017-09-05T16:02:21.624Z,54.5
2017-09-05T16:07:03.752Z,54.5
2017-09-05T16:12:03.209Z,54.3
2017-09-05T16:17:22.330Z,46.7
2017-09-05T16:22:03.240Z,47.9
2017-09-05T16:27:03.673Z,47.9
2017-09-05T16:32:24.369Z,53.1
2017-09-05T16:37:03.463Z,53.1
2017-09-05T16:42:03.819Z,55.7
2017-09-05T16:47:28.194Z,55.7
2017-09-05T16:52:03.734Z,57.2
2017-09-05T16:57:03.264Z,57.2
2017-09-05T17:02:22.122Z,55.0
2017-09-05T17:07:03.301Z,55.1
2017-09-05T17:12:03.862Z,55.1
2017-09-05T17:17:28.019Z,56.4
2017-09-05T17:22:03.780Z,54.7
2017-09-05T17:27:04.027Z,55.4
2017-09-05T17:32:23.817Z,57.2
2017-09-05T17:37:03.994Z,57.2
2017-09-05T17:42:03.414Z,57.7
2017-09-05T17:47:39.458Z,58.0
2017-09-05T17:52:03.211Z,58.0
2017-09-05T17:57:03.826Z,58.3
2017-09-05T18:02:22.034Z,58.7
2017-09-05T18:07:03.809Z,59.1
2017-09-05T18:12:03.415Z,59.1
2017-09-05T18:17:25.595Z,59.0
2017-09-05T18:22:03.277Z,59.0
2017-09-05T18:27:03.582Z,59.1
2017-09-05T18:32:04.800Z,59.1
2017-09-05T18:37:03.555Z,59.1
2017-09-05T18:42:03.706Z,59.0
2017-09-05T18:47:04.301Z,58.9
2017-09-05T18:52:03.546Z,58.9
2017-09-05T18:57:03.727Z,58.7
2017-09-05T19:02:03.697Z,58.9
2017-09-05T19:07:03.777Z,58.8
2017-09-05T19:12:03.252Z,58.7
2017-09-05T19:17:03.700Z,58.8
2017-09-05T19:22:04.061Z,58.8
2017-09-05T19:27:03.271Z,58.7
2017-09-05T19:32:03.677Z,58.7
2017-09-05T19:37:04.207Z,58.7
2017-09-05T19:42:03.395Z,58.7
2017-09-05T19:47:03.666Z,58.8
2017-09-05T19:52:03.111Z,58.7
2017-09-05T19:57:03.503Z,58.7
2017-09-05T20:02:03.701Z,58.7
2017-09-05T20:07:03.350Z,58.6
2017-09-05T20:12:03.776Z,58.6
2017-09-05T20:17:04.226Z,58.6
2017-09-05T20:22:03.459Z,58.6
2017-09-05T20:27:03.834Z,58.5
2017-09-05T20:32:03.143Z,58.5
2017-09-05T20:37:03.522Z,58.4
2017-09-05T20:42:03.754Z,58.4
2017-09-05T20:47:03.496Z,58.6
2017-09-05T20:52:03.507Z,58.6
2017-09-05T20:57:03.762Z,58.6
2017-09-05T21:02:03.304Z,58.6
2017-09-05T21:07:03.680Z,58.5
2017-09-05T21:12:03.218Z,58.6
2017-09-05T21:17:03.547Z,58.6
2017-09-05T21:22:03.925Z,58.3
2017-09-05T21:27:03.193Z,58.2
2017-09-05T21:32:03.551Z,58.3
2017-09-05T21:37:03.899Z,58.2
2017-09-05T21:42:03.237Z,58.3
2017-09-05T21:47:03.781Z,58.2
2017-09-05T21:52:03.734Z,58.2
2017-09-05T21:57:03.029Z,58.2
2017-09-05T22:02:03.529Z,58.3
2017-09-05T22:07:03.112Z,58.2
2017-09-05T22:12:03.628Z,58.2
2017-09-05T22:22:03.610Z,57.7
2017-09-05T22:27:03.420Z,58.0
2017-09-05T22:32:03.432Z,58.0
2017-09-05T22:37:03.134Z,58.0
2017-09-05T22:42:03.170Z,58.1
2017-09-05T22:47:03.034Z,58.1
2017-09-05T22:52:03.583Z,58.0
2017-09-05T22:57:03.537Z,58.0
2017-09-05T23:02:03.447Z,58.3
2017-09-05T23:07:03.481Z,59.3
2017-09-05T23:12:03.641Z,59.2
2017-09-05T23:17:03.817Z,59.0
2017-09-05T23:22:03.470Z,58.7
2017-09-05T23:27:03.300Z,58.8
2017-09-05T23:32:03.393Z,58.6
2017-09-05T23:37:03.069Z,58.5
2017-09-05T23:42:03.656Z,58.5
2017-09-05T23:47:03.722Z,58.6
2017-09-05T23:52:03.909Z,58.5
2017-09-05T23:57:02.979Z,58.5
